Hlavní strana
METAR-TAF:

METAR-TAF

Letiště :

Groznyj, Rusko

zeměpisná šířka: 43-23-18N, zeměpisná délka: 045-41-59E, výška: 167 m

Aktuální stav počasí

Zpráva byla vytvořena před 33 minutami, v 23:30 UTC
Západní vítr 2 kt
Teplota 7°C
Vlhkost vzduchu 87%
Tlak 1016 hPa
Viditelnost: 8000 m

METAR: URMG 202330Z 28001MPS 8000 NSC 07/05 Q1016 R26/000070 NOSIG RMK QFE747/0997

Čas: 03:03 (00:03 UTC)

Předpověď počasí

Zpráva byla vytvořena před 1 hodinou a 3 minutami, v 23:00 UTC
Předpověď platná od 21 v 00 UTC do 21 v 09 UTC
vítr z různých směrů 4 kt
Viditelnost: 6000 m
Polojasno ve výšce 2000 ft
Dočasný
od 21 v 00 UTC do 21 v 09 UTC
Viditelnost: 3100 m
Polojasno ve výšce 1100 ft
kouřmo

TAF: URMG 202300Z 2100/2109 VRB02MPS 6000 SCT020 TEMPO 2100/2109 3100 BR SCT011

Stav a předpovědi počasí z více než 4 000 letišť (zprávy METAR a TAF).

Červené a žluté tečky na mapě představují dostupné meteorologické stanice.

Když kurzor umístíte na tečku, zobrazí se název stanice.

Pak kliknutím zobrazíte stav a předpověď počasí.

Chcete-li změnit mapu, kliknutím na zelené tlačítko se znaménkem +mapu přiblížíte, kliknutím na zelené tlačítko se znaménkem – mapu oddálíte a kliknutím na zelené šipky přejdete na sousední mapy.


METAR-TAF: